Main page
METAR-TAF:

METAR-TAF

Airports :

Barcelona–El Prat Airport

Barcelona, Spain

latitude: 41-17N, longitude: 002-04E, elevation: 4 m

Current weather observation

The report was made 37 minutes ago, at 03:00 UTC
Wind 9 kt from the East/Northeast, varying between Northeast and East
Temperature 19°C
Humidity 78%
Pressure 1012 hPa
Visibility 10 km or more
Few clouds at a height of 2500 ft

METAR: LEBL 270300Z 06009KT 040V100 9999 FEW025 19/15 Q1012 NOSIG

Time: 05:37 (03:37 UTC)

Forecast

The report was made 4 hours and 37 minutes ago, at 23:00 UTC
Forecast valid from 27 at 00 UTC to 27 at 24 UTC
Wind 10 kt from the East/Northeast
Visibility 10 km or more
Few clouds at a height of 1500 ft
Temporary
from 27 at 06 UTC to 27 at 16 UTC
Wind 15 kt from the East/Northeast with gusts up to 28 kt
Becoming
from 27 at 19 UTC to 27 at 21 UTC
Wind 5 kt from variable directions

TAF: LEBL 262300Z 2700/2724 07010KT 9999 FEW015 TX25/2712Z TN18/2706Z TEMPO 2706/2716 07015G28KT BECMG 2719/2721 VRB05KT

Weather observations and forecasts of more than 4000 airports (METAR and TAF reports).

The available stations are represented by yellow and red dots on the map.

Hover mouse over dot to see the name of the station.

Then click to see weather observations and forecasts.

To change the map : click on the green buttons with a black cross to zoom in, on the green button with a dash to zoom out, or on the green arrows for adjacent maps.


METAR-TAF: